Terminal Aerodrome Forecast
Issued by NWS

Home | Current Version | Previous Version | Text Only | Print | Product List | Glossary On
Versions: 1 2 3 4 5 6 7 8 9 10 11 12
000
FTUS42 TJSJ 020500 RRA
TAFIST
TAF
TIST 020543Z 0206/0306 10011G19KT P6SM SCT030
      TEMPO 0208/0212 09020G30KT 4SM -RA OVC015
     FM021300 14020G34KT 6SM -RA VCTS OVC030CB
     FM022300 14015G24KT P6SM VCSH SCT040=

USA.gov is the U.S. government's official web portal to all federal, state and local government web resources and services.